Historique des mesures à Cassis (13260), France
Quotidien Résumé Juin 1, 2021 Unités:  Métrique    US   Métrique/US
Quotidien Hebdomadaire Mensuel Annuel
  Maximum: Minimum: Moyenne:
Température: 27.1 °C 18.5 °C 22.9 °C
Point de rosée: 14 °C 10.3 °C 12.2 °C
Humidité: 69% 39% 52%
Vitesse du vent: 47.9km/h 4.7km/h 21.4km/h
Rafales: 57.2km/h - -
Vent- - West
Pression: 1009.3 hPa 1005.2 hPa -
Précipitations: 0.0 mm    
Historical Graphs
 
 
Mesures pour : Juin 1, 2021
Heure Temperature Point de rosée Pression Vent Vitesse du vent Rafales Humidité Pluie (par heure)
00:11 23.9 °C 13.5 °C 1005.7 hPa NW 23 km/h 29.2 km/h 52% 0.0 mm
01:11 23.1 °C 12.9 °C 1005.5 hPa WNW 18.4 km/h 23.4 km/h 53% 0.0 mm
02:11 21.9 °C 14 °C 1005.3 hPa West 6.1 km/h 21.2 km/h 61% 0.0 mm
03:11 19.8 °C 14 °C 1005.7 hPa WNW 23.4 km/h 33.8 km/h 69% 0.0 mm
04:11 19.3 °C 12.8 °C 1005.9 hPa West 14.4 km/h 24.8 km/h 66% 0.0 mm
05:11 18.9 °C 11.9 °C 1005.4 hPa NW 10.8 km/h 22.7 km/h 64% 0.0 mm
06:11 18.6 °C 11.2 °C 1005.2 hPa WNW 6.5 km/h 24.5 km/h 62% 0.0 mm
07:11 18.5 °C 11.3 °C 1005.5 hPa West 14.4 km/h 26.3 km/h 63% 0.0 mm
08:11 21.9 °C 12.1 °C 1005.3 hPa NW 32.4 km/h 55.4 km/h 54% 0.0 mm
09:11 19.6 °C 12.1 °C 1005.5 hPa NW 28.4 km/h 48.6 km/h 62% 0.0 mm
10:11 20.7 °C 11.9 °C 1006.4 hPa NW 44.6 km/h 52.2 km/h 57% 0.0 mm
11:11 22.9 °C 11.6 °C 1006.3 hPa WNW 47.9 km/h 57.2 km/h 49% 0.0 mm
12:11 24.2 °C 11.5 °C 1007.0 hPa NW 46.1 km/h 46.1 km/h 45% 0.0 mm
13:11 25.3 °C 10.8 °C 1007.2 hPa WNW 19.8 km/h 55.8 km/h 40% 0.0 mm
14:11 26.1 °C 12.2 °C 1007.6 hPa West 29.9 km/h 36.4 km/h 42% 0.0 mm
15:11 27.1 °C 12 °C 1007.4 hPa WSW 28.8 km/h 42.8 km/h 39% 0.0 mm
16:11 26.6 °C 13 °C 1007.2 hPa WSW 23.8 km/h 38.5 km/h 43% 0.0 mm
17:11 26.4 °C 12.4 °C 1007.5 hPa WNW 18.4 km/h 33.1 km/h 42% 0.0 mm
18:11 25.9 °C 12 °C 1007.6 hPa WNW 16.9 km/h 33.5 km/h 42% 0.0 mm
19:11 25.4 °C 12.6 °C 1007.6 hPa WNW 6.5 km/h 33.1 km/h 45% 0.0 mm
20:11 24.4 °C 13 °C 1008.0 hPa WNW 18 km/h 30.6 km/h 49% 0.0 mm
21:11 23.5 °C 13.1 °C 1008.3 hPa West 4.7 km/h 22 km/h 52% 0.0 mm
22:11 23.3 °C 10.3 °C 1009.2 hPa NW 10.4 km/h 24.1 km/h 44% 0.0 mm
23:11 22.6 °C 10.7 °C 1009.3 hPa North 20.5 km/h 29.5 km/h 47% 0.0 mm
Observations météo à CASSIS
WU-History script by Weather Underground - 2 mb